Terminal Aerodrome Forecast
Issued by NWS Jackson, KY

Home | Current Version | Previous Version | Text Only | Print | Product List | Glossary On
Versions: 1 2 3 4 5 6 7 8 9 10 11 12 13 14 15 16 17
253
FTUS43 KJKL 151726
TAFJKL
TAF
KJKL 151726Z 1518/1618 22010G15KT P6SM BKN025 BKN035
     FM152100 24008KT P6SM -SHRA VCTS BKN025 OVC035CB
     FM152300 30008KT P6SM OVC020
     FM161000 VRB04KT P6SM FEW020 SCT025=

USA.gov is the U.S. government's official web portal to all federal, state and local government web resources and services.